Main page
METAR-TAF:

METAR-TAF

Airports :

Parsabad-Moghan Airport

Parsabad, Iran

latitude: 39-36-13N, longitude: 47-52-53E, elevation: 77 m

Current weather observation

The report was made 44 minutes ago, at 18:00 UTC
Calm wind
Temperature 20°C
Humidity 64%
Pressure 1006 hPa
Visibility 10 km or more
no clouds below 1500 m and no cumulonimbus

METAR: OITP 161800Z 00000KT CAVOK 20/13 Q1006

Time: 23:14 (18:44 UTC)


TAF: missing

Weather observations and forecasts of more than 4000 airports (METAR and TAF reports).

The available stations are represented by yellow and red dots on the map.

Hover mouse over dot to see the name of the station.

Then click to see weather observations and forecasts.

To change the map : click on the green buttons with a black cross to zoom in, on the green button with a dash to zoom out, or on the green arrows for adjacent maps.


METAR-TAF: